createdAt,value
2022-09-28T00:00:11.071Z,1.60
2022-09-28T00:01:18.922Z,1.97
2022-09-28T00:02:20.975Z,1.90
2022-09-28T00:03:22.583Z,1.73
2022-09-28T00:04:24.208Z,1.60
2022-09-28T00:05:28.883Z,1.87
2022-09-28T00:06:31.211Z,1.63
2022-09-28T00:07:32.588Z,1.53
2022-09-28T00:08:35.317Z,1.80
2022-09-28T00:09:36.740Z,1.60
2022-09-28T00:10:38.152Z,1.83
2022-09-28T00:11:40.180Z,1.80
2022-09-28T00:12:41.959Z,1.80
2022-09-28T00:13:44.554Z,1.70
2022-09-28T00:14:45.989Z,2.00
2022-09-28T00:15:47.365Z,1.67
2022-09-28T00:16:49.799Z,1.53
2022-09-28T00:17:51.281Z,1.70
2022-09-28T00:18:53.714Z,1.60
2022-09-28T00:19:57.576Z,1.63
2022-09-28T00:21:12.832Z,1.63
2022-09-28T00:22:14.263Z,1.70
2022-09-28T00:23:15.647Z,1.80
2022-09-28T00:24:17.164Z,2.10
2022-09-28T00:25:21.608Z,1.80
2022-09-28T00:26:23.827Z,1.77
2022-09-28T00:27:25.191Z,1.73
2022-09-28T00:28:26.586Z,1.57
2022-09-28T00:29:32.910Z,1.60
2022-09-28T00:30:34.341Z,1.53
2022-09-28T00:31:35.846Z,1.90
2022-09-28T00:32:37.612Z,1.70
2022-09-28T00:33:40.560Z,1.77
2022-09-28T00:34:45.913Z,1.60
2022-09-28T00:35:56.169Z,1.70
2022-09-28T00:36:58.932Z,1.70
2022-09-28T00:38:02.149Z,1.60
2022-09-28T00:39:06.004Z,1.53
2022-09-28T00:40:07.797Z,1.60
2022-09-28T00:41:11.311Z,1.80
2022-09-28T00:42:18.731Z,1.70
2022-09-28T00:43:21.094Z,1.60
2022-09-28T00:44:25.408Z,1.90
2022-09-28T00:45:27.395Z,1.67
2022-09-28T00:46:34.010Z,1.73
2022-09-28T00:47:41.102Z,1.63
2022-09-28T00:48:51.399Z,1.60
2022-09-28T00:50:08.751Z,1.80
2022-09-28T00:51:12.249Z,1.50
2022-09-28T00:52:19.900Z,1.80
2022-09-28T00:53:27.940Z,1.73
2022-09-28T00:54:30.367Z,1.77
2022-09-28T00:55:54.030Z,1.80
2022-09-28T00:56:56.341Z,1.70
2022-09-28T00:58:00.726Z,1.80
2022-09-28T00:59:04.659Z,1.83
2022-09-28T01:00:07.255Z,1.70
2022-09-28T01:01:09.096Z,1.87
2022-09-28T01:02:10.766Z,1.87
2022-09-28T01:03:14.223Z,1.80
2022-09-28T01:04:15.952Z,1.80
2022-09-28T01:05:18.818Z,1.60
2022-09-28T01:06:27.632Z,1.63
2022-09-28T01:07:31.304Z,2.10
2022-09-28T01:08:34.363Z,1.80
2022-09-28T01:09:39.250Z,1.90
2022-09-28T01:10:41.364Z,1.80
2022-09-28T01:11:43.344Z,1.53
2022-09-28T01:12:45.014Z,1.60
2022-09-28T01:13:48.744Z,1.70
2022-09-28T01:14:51.875Z,1.80
2022-09-28T01:15:53.598Z,1.63
2022-09-28T01:17:18.043Z,2.03
2022-09-28T01:19:00.411Z,1.90
2022-09-28T01:20:17.470Z,1.70
2022-09-28T01:21:23.894Z,1.90
2022-09-28T01:22:55.771Z,1.67
2022-09-28T01:24:21.655Z,1.67
2022-09-28T01:25:57.288Z,1.83
2022-09-28T01:27:13.911Z,1.70
2022-09-28T01:28:19.252Z,1.53
2022-09-28T01:29:21.078Z,1.60
2022-09-28T01:30:23.183Z,1.90
2022-09-28T01:31:29.703Z,1.57
2022-09-28T01:32:40.224Z,1.83
2022-09-28T01:33:46.956Z,1.70
2022-09-28T01:34:51.452Z,1.90
2022-09-28T01:36:04.414Z,1.60
2022-09-28T01:37:11.520Z,1.73
2022-09-28T01:38:18.600Z,2.00
2022-09-28T01:39:37.737Z,1.90
2022-09-28T01:40:40.836Z,1.73
2022-09-28T01:41:46.299Z,1.70
2022-09-28T01:42:56.319Z,1.80
2022-09-28T01:44:02.863Z,2.00
2022-09-28T01:45:11.328Z,1.97
2022-09-28T01:46:22.181Z,2.00
2022-09-28T01:47:26.313Z,2.00
2022-09-28T01:48:36.340Z,1.90
2022-09-28T01:49:43.836Z,1.60
2022-09-28T01:50:48.404Z,1.73
2022-09-28T01:52:10.717Z,1.73
2022-09-28T01:53:32.490Z,1.73
2022-09-28T01:54:44.971Z,1.60
2022-09-28T01:55:54.112Z,1.90
2022-09-28T01:57:04.724Z,1.97
2022-09-28T01:58:14.878Z,1.70
2022-09-28T01:59:24.770Z,1.90
2022-09-28T02:00:27.764Z,1.73
2022-09-28T02:01:40.376Z,1.90
2022-09-28T02:02:55.615Z,1.80
2022-09-28T02:04:14.558Z,1.77
2022-09-28T02:05:20.119Z,1.50
2022-09-28T02:06:44.876Z,1.63
2022-09-28T02:07:55.795Z,1.53
2022-09-28T02:09:02.353Z,1.70
2022-09-28T02:10:22.401Z,1.77
2022-09-28T02:11:24.050Z,1.80
2022-09-28T02:12:48.490Z,1.90
2022-09-28T02:14:02.951Z,1.80
2022-09-28T02:15:20.291Z,1.70
2022-09-28T02:16:34.647Z,1.80
2022-09-28T02:17:36.531Z,1.80
2022-09-28T02:18:38.021Z,2.00
2022-09-28T02:19:41.264Z,1.90
2022-09-28T02:20:49.730Z,1.77
2022-09-28T02:22:08.223Z,1.70
2022-09-28T02:23:10.674Z,1.40
2022-09-28T02:24:53.367Z,1.67
2022-09-28T02:26:03.652Z,1.60
2022-09-28T02:27:31.318Z,1.67
2022-09-28T02:28:32.819Z,1.70
2022-09-28T02:29:34.316Z,1.60
2022-09-28T02:30:39.059Z,1.70
2022-09-28T02:31:40.544Z,1.47
2022-09-28T02:32:46.648Z,1.53
2022-09-28T02:33:51.520Z,1.77
2022-09-28T02:34:54.001Z,1.73
2022-09-28T02:35:57.514Z,1.70
2022-09-28T02:37:01.759Z,1.60
2022-09-28T02:38:03.363Z,1.53
2022-09-28T02:39:05.021Z,1.43
2022-09-28T02:40:29.615Z,1.60
2022-09-28T02:41:46.329Z,1.60
2022-09-28T02:42:55.854Z,1.43
2022-09-28T02:44:21.974Z,1.90
2022-09-28T02:45:31.877Z,1.70
2022-09-28T02:46:49.017Z,1.63
2022-09-28T02:48:43.653Z,1.93
2022-09-28T02:50:13.288Z,1.63
2022-09-28T02:52:08.451Z,1.70
2022-09-28T02:53:26.206Z,1.60
2022-09-28T02:54:36.549Z,1.83
2022-09-28T02:55:48.016Z,2.10
2022-09-28T02:57:12.977Z,1.70
2022-09-28T02:58:35.208Z,1.70
2022-09-28T02:59:39.472Z,1.73
2022-09-28T03:01:03.374Z,1.80
2022-09-28T03:02:21.100Z,2.10
2022-09-28T03:03:32.395Z,1.90
2022-09-28T03:04:58.003Z,1.70
2022-09-28T03:06:32.123Z,2.00
2022-09-28T03:07:46.614Z,1.70
2022-09-28T03:09:26.028Z,1.50
2022-09-28T03:11:09.480Z,1.73
2022-09-28T03:12:14.247Z,1.67
2022-09-28T03:13:16.670Z,1.80
2022-09-28T03:14:19.315Z,1.47
2022-09-28T03:15:29.071Z,1.70
2022-09-28T03:16:32.369Z,1.70
2022-09-28T03:17:33.955Z,1.67
2022-09-28T03:18:35.474Z,1.87
2022-09-28T03:19:37.140Z,1.80
2022-09-28T03:20:39.013Z,1.80
2022-09-28T03:21:41.303Z,1.63
2022-09-28T03:22:43.239Z,2.10
2022-09-28T03:23:45.079Z,1.80
2022-09-28T03:24:46.560Z,1.63
2022-09-28T03:25:47.967Z,1.60
2022-09-28T03:26:49.670Z,1.80
2022-09-28T03:27:51.382Z,1.57
2022-09-28T03:28:52.899Z,1.70
2022-09-28T03:29:57.994Z,1.50
2022-09-28T03:30:59.496Z,1.50
2022-09-28T03:32:01.262Z,1.70
2022-09-28T03:33:04.290Z,1.67
2022-09-28T03:34:07.087Z,1.70
2022-09-28T03:35:09.854Z,1.80
2022-09-28T03:36:14.610Z,1.80
2022-09-28T03:37:16.464Z,1.80
2022-09-28T03:38:19.228Z,2.00
2022-09-28T03:39:20.791Z,1.90
2022-09-28T03:40:22.514Z,2.00
2022-09-28T03:41:24.313Z,1.90
2022-09-28T03:42:25.805Z,1.73
2022-09-28T03:43:29.586Z,1.90
2022-09-28T03:44:33.034Z,1.90
2022-09-28T03:45:34.625Z,1.97
2022-09-28T03:46:36.140Z,1.93
2022-09-28T03:47:46.099Z,1.90
2022-09-28T03:48:47.587Z,2.10
2022-09-28T03:49:49.058Z,2.00
2022-09-28T03:50:54.385Z,1.83
2022-09-28T03:51:55.863Z,2.00
2022-09-28T03:53:02.753Z,2.07
2022-09-28T03:54:04.555Z,2.13
2022-09-28T03:55:06.705Z,1.73
2022-09-28T03:56:14.995Z,2.07
2022-09-28T03:57:16.591Z,2.30
2022-09-28T03:58:18.059Z,2.00
2022-09-28T03:59:19.768Z,2.00
2022-09-28T04:00:21.287Z,2.00
2022-09-28T04:01:22.964Z,2.00
2022-09-28T04:02:24.669Z,1.97
2022-09-28T04:03:26.455Z,2.07
2022-09-28T04:04:27.909Z,2.10
2022-09-28T04:05:29.353Z,2.40
2022-09-28T04:06:30.828Z,2.03
2022-09-28T04:07:32.389Z,2.20
2022-09-28T04:08:33.964Z,2.17
2022-09-28T04:09:36.024Z,2.30
2022-09-28T04:10:37.712Z,2.30
2022-09-28T04:12:02.296Z,2.43
2022-09-28T04:13:00.649Z,2.07
2022-09-28T04:14:02.402Z,2.50
2022-09-28T04:15:05.959Z,2.30
2022-09-28T04:16:08.052Z,2.40
2022-09-28T04:17:10.142Z,2.40
2022-09-28T04:18:13.482Z,2.23
2022-09-28T04:19:53.376Z,2.23
2022-09-28T04:21:08.122Z,2.40
2022-09-28T04:22:20.783Z,2.37
2022-09-28T04:23:22.226Z,2.30
2022-09-28T04:24:23.627Z,2.10
2022-09-28T04:25:26.115Z,2.30
2022-09-28T04:26:28.354Z,2.33
2022-09-28T04:27:49.656Z,2.03
2022-09-28T04:29:10.020Z,2.20
2022-09-28T04:30:12.013Z,2.37
2022-09-28T04:31:19.317Z,2.40
2022-09-28T04:32:21.482Z,2.50
2022-09-28T04:33:23.119Z,2.43
2022-09-28T04:34:24.556Z,2.30
2022-09-28T04:35:26.261Z,2.47
2022-09-28T04:36:27.737Z,2.23
2022-09-28T04:37:31.217Z,2.20
2022-09-28T04:38:51.697Z,2.27
2022-09-28T04:39:54.354Z,2.20
2022-09-28T04:40:55.922Z,2.17
2022-09-28T04:41:57.725Z,2.03
2022-09-28T04:42:59.150Z,2.60
2022-09-28T04:44:01.091Z,2.13
2022-09-28T04:45:05.012Z,2.47
2022-09-28T04:46:10.589Z,2.17
2022-09-28T04:47:17.991Z,1.90
2022-09-28T04:48:45.335Z,2.10
2022-09-28T04:50:05.849Z,2.17
2022-09-28T04:51:09.826Z,2.30
2022-09-28T04:52:17.837Z,2.07
2022-09-28T04:53:22.471Z,1.93
2022-09-28T04:54:24.076Z,2.20
2022-09-28T04:55:25.546Z,2.13
2022-09-28T04:56:27.174Z,2.27
2022-09-28T04:57:28.614Z,1.90
2022-09-28T04:58:31.121Z,2.13
2022-09-28T04:59:32.568Z,2.47
2022-09-28T05:00:35.147Z,2.03
2022-09-28T05:01:56.980Z,2.37
2022-09-28T05:03:17.946Z,2.40
2022-09-28T05:04:45.837Z,2.03
2022-09-28T05:06:09.678Z,2.00
2022-09-28T05:07:15.565Z,1.93
2022-09-28T05:08:18.152Z,1.93
2022-09-28T05:09:19.584Z,2.10
2022-09-28T05:10:21.991Z,2.20
2022-09-28T05:11:23.639Z,2.13
2022-09-28T05:12:25.796Z,2.30
2022-09-28T05:13:28.801Z,2.17
2022-09-28T05:14:30.469Z,2.10
2022-09-28T05:15:33.968Z,2.13
2022-09-28T05:16:36.173Z,1.97
2022-09-28T05:17:56.350Z,1.93
2022-09-28T05:19:12.481Z,1.83
2022-09-28T05:20:15.817Z,1.90
2022-09-28T05:21:19.617Z,2.30
2022-09-28T05:22:21.191Z,2.30
2022-09-28T05:23:22.657Z,1.90
2022-09-28T05:24:24.475Z,2.50
2022-09-28T05:25:27.136Z,2.07
2022-09-28T05:26:41.103Z,2.30
2022-09-28T05:27:44.669Z,2.47
2022-09-28T05:29:02.324Z,2.10
2022-09-28T05:30:13.395Z,2.27
2022-09-28T05:31:35.247Z,1.90
2022-09-28T05:32:51.761Z,2.10
2022-09-28T05:34:01.565Z,2.10
2022-09-28T05:35:05.832Z,1.83
2022-09-28T05:36:15.248Z,2.27
2022-09-28T05:37:17.684Z,2.30
2022-09-28T05:38:20.107Z,1.90
2022-09-28T05:39:21.540Z,2.10
2022-09-28T05:40:23.528Z,1.80
2022-09-28T05:41:25.276Z,2.13
2022-09-28T05:42:26.816Z,2.10
2022-09-28T05:43:28.223Z,2.30
2022-09-28T05:44:29.816Z,2.43
2022-09-28T05:45:31.582Z,1.93
2022-09-28T05:46:33.314Z,2.40
2022-09-28T05:47:40.744Z,2.20
2022-09-28T05:48:42.827Z,2.20
2022-09-28T05:49:44.244Z,2.00
2022-09-28T05:50:53.454Z,2.03
2022-09-28T05:51:55.460Z,2.00
2022-09-28T05:53:01.859Z,2.47
2022-09-28T05:54:06.216Z,2.40
2022-09-28T05:55:11.760Z,2.73
2022-09-28T05:56:13.197Z,2.10
2022-09-28T05:57:18.756Z,2.40
2022-09-28T05:58:20.510Z,2.10
2022-09-28T05:59:22.031Z,2.60
2022-09-28T06:00:24.273Z,2.33
2022-09-28T06:01:28.643Z,2.53
2022-09-28T06:02:32.370Z,2.37
2022-09-28T06:03:34.110Z,2.33
2022-09-28T06:04:35.850Z,2.20
2022-09-28T06:05:38.826Z,2.30
2022-09-28T06:06:40.795Z,2.50
2022-09-28T06:07:42.736Z,2.33
2022-09-28T06:08:46.291Z,2.47
2022-09-28T06:10:17.039Z,2.13
2022-09-28T06:11:19.585Z,2.07
2022-09-28T06:12:21.990Z,2.40
2022-09-28T06:13:29.032Z,2.33
2022-09-28T06:14:31.304Z,2.30
2022-09-28T06:15:35.304Z,2.27
2022-09-28T06:16:40.447Z,2.00
2022-09-28T06:17:45.256Z,2.43
2022-09-28T06:19:09.419Z,2.40
2022-09-28T06:20:38.694Z,2.27
2022-09-28T06:21:50.532Z,2.07
2022-09-28T06:22:55.772Z,2.07
2022-09-28T06:23:57.191Z,2.43
2022-09-28T06:24:59.153Z,2.33
2022-09-28T06:26:00.630Z,2.20
2022-09-28T06:27:02.296Z,2.10
2022-09-28T06:28:12.269Z,2.07
2022-09-28T06:29:19.798Z,2.30
2022-09-28T06:30:22.225Z,2.70
2022-09-28T06:31:24.983Z,2.67
2022-09-28T06:32:29.201Z,2.10
2022-09-28T06:33:31.078Z,2.33
2022-09-28T06:34:32.493Z,2.17
2022-09-28T06:35:35.505Z,2.53
2022-09-28T06:36:37.049Z,2.60
2022-09-28T06:37:38.606Z,2.60
2022-09-28T06:38:40.123Z,2.43
2022-09-28T06:39:41.569Z,2.67
2022-09-28T06:40:43.047Z,2.60
2022-09-28T06:41:44.508Z,2.47
2022-09-28T06:42:58.590Z,2.47
2022-09-28T06:44:19.186Z,2.60
2022-09-28T06:45:39.291Z,2.43
2022-09-28T06:46:57.318Z,2.90
2022-09-28T06:48:31.703Z,2.53
2022-09-28T06:49:33.184Z,2.60
2022-09-28T06:50:57.567Z,2.53
2022-09-28T06:52:02.962Z,2.43
2022-09-28T06:53:23.592Z,3.40
2022-09-28T06:54:30.715Z,3.30
2022-09-28T06:55:49.079Z,3.60
2022-09-28T06:56:54.608Z,3.77
2022-09-28T06:58:09.660Z,4.17
2022-09-28T06:59:11.305Z,4.03
2022-09-28T07:00:14.331Z,4.50
2022-09-28T07:01:18.604Z,4.47
2022-09-28T07:02:31.355Z,3.83
2022-09-28T07:03:43.509Z,4.30
2022-09-28T07:05:03.719Z,3.87
2022-09-28T07:06:31.450Z,3.90
2022-09-28T07:08:04.098Z,4.63
2022-09-28T07:09:35.074Z,3.53
2022-09-28T07:10:56.247Z,3.53
2022-09-28T07:12:16.797Z,3.90
2022-09-28T07:13:48.343Z,3.50
2022-09-28T07:14:57.222Z,3.97
2022-09-28T07:16:01.692Z,3.93
2022-09-28T07:17:13.124Z,3.73
2022-09-28T07:18:17.834Z,4.70
2022-09-28T07:19:19.272Z,4.23
2022-09-28T07:20:21.008Z,3.93
2022-09-28T07:21:29.698Z,3.73
2022-09-28T07:22:43.062Z,3.97
2022-09-28T07:23:53.708Z,3.57
2022-09-28T07:24:58.047Z,3.77
2022-09-28T07:26:22.554Z,3.57
2022-09-28T07:27:34.280Z,3.63
2022-09-28T07:28:50.247Z,3.50
2022-09-28T07:30:17.960Z,3.60
2022-09-28T07:31:38.447Z,3.60
2022-09-28T07:33:01.918Z,4.37
2022-09-28T07:34:12.525Z,3.67
2022-09-28T07:35:53.586Z,3.83
2022-09-28T07:36:58.828Z,4.50
2022-09-28T07:38:03.437Z,4.20
2022-09-28T07:39:06.179Z,3.90
2022-09-28T07:40:27.665Z,4.07
2022-09-28T07:41:35.081Z,3.60
2022-09-28T07:42:38.762Z,3.67
2022-09-28T07:43:41.650Z,3.50
2022-09-28T07:44:43.252Z,3.50
2022-09-28T07:45:44.869Z,3.40
2022-09-28T07:46:46.777Z,3.50
2022-09-28T07:47:59.075Z,3.70
2022-09-28T07:49:12.730Z,3.40
2022-09-28T07:50:57.279Z,3.43
2022-09-28T07:52:12.405Z,3.37
2022-09-28T07:53:34.264Z,3.40
2022-09-28T07:55:11.100Z,3.90
2022-09-28T07:56:24.123Z,3.47
2022-09-28T07:57:33.433Z,3.33
2022-09-28T07:58:55.003Z,3.37
2022-09-28T08:00:15.004Z,3.20
2022-09-28T08:01:19.251Z,2.80
2022-09-28T08:02:21.441Z,3.13
2022-09-28T08:03:23.392Z,3.47
2022-09-28T08:04:25.333Z,3.13
2022-09-28T08:05:31.200Z,2.90
2022-09-28T08:06:32.981Z,3.20
2022-09-28T08:07:34.765Z,3.53
2022-09-28T08:08:43.843Z,3.07
2022-09-28T08:09:46.798Z,3.10
2022-09-28T08:11:05.785Z,2.80
2022-09-28T08:12:33.595Z,3.23
2022-09-28T08:13:55.577Z,3.27
2022-09-28T08:15:17.092Z,2.90
2022-09-28T08:16:18.971Z,3.07
2022-09-28T08:17:49.569Z,3.10
2022-09-28T08:18:54.193Z,3.00
2022-09-28T08:20:14.630Z,2.83
2022-09-28T08:21:35.570Z,3.10
2022-09-28T08:22:37.278Z,3.13
2022-09-28T08:23:39.088Z,2.77
2022-09-28T08:24:41.754Z,2.70
2022-09-28T08:25:48.960Z,2.60
2022-09-28T08:26:50.631Z,3.07
2022-09-28T08:27:52.710Z,2.83
2022-09-28T08:28:54.908Z,2.70
2022-09-28T08:30:14.993Z,3.03
2022-09-28T08:31:26.244Z,2.90
2022-09-28T08:32:54.898Z,3.07
2022-09-28T08:34:14.937Z,3.00
2022-09-28T08:35:45.995Z,2.93
2022-09-28T08:37:07.194Z,2.90
2022-09-28T08:38:34.571Z,2.70
2022-09-28T08:39:54.635Z,2.93
2022-09-28T08:41:25.562Z,3.07
2022-09-28T08:42:43.441Z,2.90
2022-09-28T08:44:11.274Z,2.83
2022-09-28T08:45:48.518Z,3.00
2022-09-28T08:48:04.515Z,2.87
2022-09-28T08:49:31.543Z,2.97
2022-09-28T08:50:59.470Z,2.70
2022-09-28T08:52:37.707Z,3.20
2022-09-28T08:54:21.252Z,2.93
2022-09-28T08:55:36.876Z,3.07
2022-09-28T08:56:54.166Z,3.27
2022-09-28T08:58:06.685Z,2.80
2022-09-28T08:59:16.285Z,3.30
2022-09-28T09:00:22.872Z,2.67
2022-09-28T09:01:27.767Z,3.00
2022-09-28T09:02:39.518Z,3.07
2022-09-28T09:03:52.662Z,2.77
2022-09-28T09:05:13.366Z,3.10
2022-09-28T09:06:50.850Z,3.07
2022-09-28T09:08:28.176Z,2.97
2022-09-28T09:09:57.028Z,2.50
2022-09-28T09:11:23.215Z,3.00
2022-09-28T09:12:55.665Z,3.30
2022-09-28T09:14:32.002Z,3.33
2022-09-28T09:15:55.110Z,2.97
2022-09-28T09:17:40.734Z,2.90
2022-09-28T09:19:02.797Z,2.70
2022-09-28T09:20:39.537Z,3.03
2022-09-28T09:22:39.030Z,3.13
2022-09-28T09:23:43.972Z,2.87
2022-09-28T09:25:03.604Z,2.63
2022-09-28T09:26:20.312Z,2.80
2022-09-28T09:27:37.955Z,3.30
2022-09-28T09:29:00.894Z,3.00
2022-09-28T09:30:21.936Z,3.10
2022-09-28T09:31:38.279Z,2.83
2022-09-28T09:32:53.522Z,2.90
2022-09-28T09:34:14.053Z,3.03
2022-09-28T09:36:07.252Z,3.17
2022-09-28T09:38:00.120Z,3.40
2022-09-28T09:39:53.807Z,3.83
2022-09-28T09:41:36.774Z,3.73
2022-09-28T09:43:13.018Z,3.33
2022-09-28T09:44:38.952Z,3.80
2022-09-28T09:46:26.660Z,3.60
2022-09-28T09:47:54.080Z,3.83
2022-09-28T09:49:12.743Z,4.00
2022-09-28T09:50:44.778Z,3.80
2022-09-28T09:51:53.414Z,3.67
2022-09-28T09:53:03.325Z,3.50
2022-09-28T09:54:23.268Z,3.80
2022-09-28T09:55:38.635Z,3.93
2022-09-28T09:57:15.739Z,3.23
2022-09-28T09:58:40.004Z,3.57
2022-09-28T09:59:57.075Z,3.80
2022-09-28T10:01:19.894Z,4.07
2022-09-28T10:02:41.119Z,3.27
2022-09-28T10:03:58.916Z,3.30
2022-09-28T10:05:18.047Z,3.40
2022-09-28T10:06:28.440Z,3.23
2022-09-28T10:07:43.568Z,3.60
2022-09-28T10:08:58.643Z,3.20
2022-09-28T10:10:02.493Z,3.97
2022-09-28T10:11:28.680Z,3.73
2022-09-28T10:12:31.137Z,3.50
2022-09-28T10:13:34.558Z,4.00
2022-09-28T10:14:40.716Z,4.00
2022-09-28T10:15:45.322Z,3.53
2022-09-28T10:16:55.884Z,3.90
2022-09-28T10:18:19.048Z,3.87
2022-09-28T10:19:56.915Z,3.83
2022-09-28T10:21:01.892Z,4.20
2022-09-28T10:22:17.614Z,3.80
2022-09-28T10:23:29.334Z,4.10
2022-09-28T10:24:47.120Z,3.43
2022-09-28T10:25:54.190Z,3.93
2022-09-28T10:26:58.862Z,3.77
2022-09-28T10:28:02.979Z,4.13
2022-09-28T10:29:14.602Z,3.90
2022-09-28T10:30:25.106Z,3.73
2022-09-28T10:31:44.182Z,4.07
2022-09-28T10:32:59.212Z,3.70
2022-09-28T10:34:06.900Z,3.83
2022-09-28T10:35:23.784Z,3.60
2022-09-28T10:36:44.210Z,3.50
2022-09-28T10:37:55.089Z,3.90
2022-09-28T10:39:39.235Z,3.87
2022-09-28T10:40:45.082Z,3.67
2022-09-28T10:41:51.670Z,3.30
2022-09-28T10:43:26.093Z,3.70
2022-09-28T10:44:48.943Z,3.53
2022-09-28T10:46:05.967Z,3.50
2022-09-28T10:47:15.889Z,3.60
2022-09-28T10:48:22.129Z,4.03
2022-09-28T10:49:26.001Z,3.73
2022-09-28T10:50:31.698Z,3.90
2022-09-28T10:51:44.326Z,3.90
2022-09-28T10:52:50.876Z,3.63
2022-09-28T10:54:31.975Z,4.07
2022-09-28T10:55:36.949Z,3.87
2022-09-28T10:56:41.069Z,4.00
2022-09-28T10:57:48.717Z,4.03
2022-09-28T10:58:52.104Z,3.50
2022-09-28T11:00:44.546Z,4.00
2022-09-28T11:01:58.421Z,3.77
2022-09-28T11:03:02.025Z,3.57
2022-09-28T11:04:10.469Z,4.20
2022-09-28T11:05:22.101Z,3.77
2022-09-28T11:06:27.389Z,3.50
2022-09-28T11:07:32.187Z,3.40
2022-09-28T11:08:37.689Z,3.83
2022-09-28T11:09:45.506Z,3.53
2022-09-28T11:11:00.439Z,3.67
2022-09-28T11:12:05.938Z,3.73
2022-09-28T11:13:10.083Z,3.93
2022-09-28T11:14:42.203Z,3.43
2022-09-28T11:15:50.322Z,3.80
2022-09-28T11:17:33.851Z,3.97
2022-09-28T11:18:35.308Z,3.80
2022-09-28T11:19:42.164Z,3.20
2022-09-28T11:20:45.527Z,3.50
2022-09-28T11:21:47.334Z,3.50
2022-09-28T11:22:52.560Z,4.00
2022-09-28T11:23:56.981Z,3.37
2022-09-28T11:25:16.389Z,3.50
2022-09-28T11:26:19.007Z,3.60
2022-09-28T11:27:25.763Z,3.30
2022-09-28T11:28:33.385Z,3.53
2022-09-28T11:29:51.361Z,3.23
2022-09-28T11:30:56.313Z,3.50
2022-09-28T11:32:15.906Z,3.20
2022-09-28T11:33:47.146Z,3.60
2022-09-28T11:35:01.506Z,3.10
2022-09-28T11:36:19.344Z,3.00
2022-09-28T11:37:44.275Z,3.40
2022-09-28T11:38:53.782Z,3.80
2022-09-28T11:40:34.061Z,3.43
2022-09-28T11:41:41.920Z,3.13
2022-09-28T11:42:44.711Z,3.37
2022-09-28T11:44:04.405Z,3.50
2022-09-28T11:45:29.452Z,3.67
2022-09-28T11:46:44.310Z,3.00
2022-09-28T11:47:57.922Z,3.20
2022-09-28T11:49:30.401Z,3.40
2022-09-28T11:50:53.366Z,3.43
2022-09-28T11:51:59.272Z,3.70
2022-09-28T11:53:22.940Z,3.50
2022-09-28T11:54:38.664Z,3.50
2022-09-28T11:55:56.335Z,3.57
2022-09-28T11:57:02.185Z,3.43
2022-09-28T11:58:22.773Z,3.63
2022-09-28T11:59:34.267Z,3.40
2022-09-28T12:00:41.890Z,3.43
2022-09-28T12:01:53.509Z,3.60
2022-09-28T12:03:22.997Z,3.57
2022-09-28T12:04:42.288Z,3.50
2022-09-28T12:05:58.415Z,3.30
2022-09-28T12:07:15.125Z,3.70
2022-09-28T12:08:25.338Z,3.77
2022-09-28T12:10:09.883Z,3.50
2022-09-28T12:11:35.895Z,3.40
2022-09-28T12:13:16.245Z,3.47
2022-09-28T12:14:27.017Z,3.30
2022-09-28T12:16:07.452Z,3.60
2022-09-28T12:17:24.818Z,3.87
2022-09-28T12:18:37.311Z,3.20
2022-09-28T12:19:47.546Z,3.53
2022-09-28T12:21:01.745Z,3.67
2022-09-28T12:22:13.743Z,3.60
2022-09-28T12:23:36.824Z,3.50
2022-09-28T12:24:44.004Z,3.80
2022-09-28T12:25:51.927Z,3.60
2022-09-28T12:27:25.295Z,3.50
2022-09-28T12:28:39.818Z,3.33
2022-09-28T12:29:47.701Z,3.50
2022-09-28T12:30:49.914Z,3.83
2022-09-28T12:32:12.809Z,4.00
2022-09-28T12:33:15.463Z,3.80
2022-09-28T12:34:17.522Z,3.40
2022-09-28T12:35:37.170Z,3.53
2022-09-28T12:37:21.769Z,3.30
2022-09-28T12:38:54.114Z,3.93
2022-09-28T12:40:27.628Z,3.57
2022-09-28T12:41:50.651Z,3.83
2022-09-28T12:43:13.766Z,3.90
2022-09-28T12:44:33.339Z,4.40
2022-09-28T12:46:16.917Z,3.97
2022-09-28T12:47:51.030Z,3.80
2022-09-28T12:51:09.282Z,4.20
2022-09-28T12:52:23.059Z,3.77
2022-09-28T12:54:21.271Z,3.90
2022-09-28T12:55:33.913Z,3.90
2022-09-28T12:56:53.747Z,3.93
2022-09-28T12:58:29.006Z,4.00
2022-09-28T12:59:41.551Z,3.90
2022-09-28T13:01:09.976Z,4.30
2022-09-28T13:02:32.648Z,4.03
2022-09-28T13:04:13.506Z,3.53
2022-09-28T13:05:55.935Z,4.07
2022-09-28T13:07:08.623Z,3.90
2022-09-28T13:08:21.810Z,3.90
2022-09-28T13:09:28.923Z,3.57
2022-09-28T13:11:11.806Z,3.67
2022-09-28T13:12:48.930Z,4.00
2022-09-28T13:13:57.222Z,4.03
2022-09-28T13:15:32.074Z,4.07
2022-09-28T13:16:48.318Z,3.60
2022-09-28T13:18:10.530Z,3.63
2022-09-28T13:19:20.464Z,3.63
2022-09-28T13:20:31.150Z,3.90
2022-09-28T13:21:45.740Z,3.93
2022-09-28T13:23:05.151Z,3.87
2022-09-28T13:24:30.995Z,3.50
2022-09-28T13:25:36.384Z,3.90
2022-09-28T13:26:43.995Z,3.80
2022-09-28T13:27:51.981Z,3.30
2022-09-28T13:28:58.081Z,3.90
2022-09-28T13:30:02.914Z,3.57
2022-09-28T13:31:05.418Z,3.40
2022-09-28T13:32:09.733Z,3.30
2022-09-28T13:33:20.386Z,3.77
2022-09-28T13:34:28.763Z,3.03
2022-09-28T13:35:30.900Z,3.60
2022-09-28T13:36:32.510Z,3.33
2022-09-28T13:37:34.637Z,3.60
2022-09-28T13:38:49.787Z,3.50
2022-09-28T13:39:56.328Z,3.20
2022-09-28T13:41:03.409Z,3.60
2022-09-28T13:42:07.336Z,3.53
2022-09-28T13:43:34.372Z,3.20
2022-09-28T13:45:04.089Z,3.73
2022-09-28T13:46:29.782Z,3.70
2022-09-28T13:47:58.607Z,3.60
2022-09-28T13:49:36.598Z,3.20
2022-09-28T13:51:06.193Z,3.13
2022-09-28T13:52:25.297Z,3.30
2022-09-28T13:54:11.827Z,3.10
2022-09-28T13:55:43.952Z,3.20
2022-09-28T13:56:50.990Z,2.90
2022-09-28T13:58:15.542Z,3.57
2022-09-28T13:59:27.813Z,3.13
2022-09-28T14:00:51.302Z,3.20
2022-09-28T14:02:07.095Z,3.30
2022-09-28T14:03:23.526Z,2.90
2022-09-28T14:04:47.708Z,3.47
2022-09-28T14:06:10.937Z,3.20
2022-09-28T14:07:47.475Z,3.20
2022-09-28T14:09:23.949Z,2.80
2022-09-28T14:10:51.860Z,3.20
2022-09-28T14:12:00.181Z,2.80
2022-09-28T14:13:04.210Z,3.00
2022-09-28T14:14:08.143Z,3.10
2022-09-28T14:15:31.331Z,2.70
2022-09-28T14:16:36.928Z,2.80
2022-09-28T14:17:52.991Z,2.80
2022-09-28T14:19:21.077Z,2.70
2022-09-28T14:20:25.265Z,2.97
2022-09-28T14:22:03.288Z,3.00
2022-09-28T14:23:17.017Z,2.50
2022-09-28T14:24:49.621Z,3.00
2022-09-28T14:26:16.096Z,2.70
2022-09-28T14:27:41.786Z,3.23
2022-09-28T14:29:01.541Z,2.73
2022-09-28T14:30:11.790Z,2.50
2022-09-28T14:31:24.670Z,2.80
2022-09-28T14:32:36.011Z,2.60
2022-09-28T14:33:39.295Z,3.10
2022-09-28T14:34:47.004Z,2.77
2022-09-28T14:36:40.966Z,2.83
2022-09-28T14:38:01.984Z,2.60
2022-09-28T14:39:22.902Z,2.60
2022-09-28T14:40:56.167Z,2.80
2022-09-28T14:42:09.312Z,2.97
2022-09-28T14:43:24.422Z,2.67
2022-09-28T14:44:25.949Z,2.40
2022-09-28T14:45:36.057Z,2.77
2022-09-28T14:46:44.675Z,2.63
2022-09-28T14:48:13.565Z,2.30
2022-09-28T14:49:19.205Z,2.40
2022-09-28T14:50:20.713Z,2.80
2022-09-28T14:51:27.246Z,2.57
2022-09-28T14:52:50.682Z,2.40
2022-09-28T14:54:01.581Z,2.50
2022-09-28T14:55:07.091Z,2.53
2022-09-28T14:56:12.277Z,2.57
2022-09-28T14:57:25.077Z,2.60
2022-09-28T14:58:32.417Z,2.33
2022-09-28T14:59:42.835Z,2.70
2022-09-28T15:00:46.857Z,2.80
2022-09-28T15:02:00.584Z,2.60
2022-09-28T15:03:08.933Z,2.50
2022-09-28T15:04:16.940Z,2.40
2022-09-28T15:05:24.199Z,2.37
2022-09-28T15:06:29.224Z,2.27
2022-09-28T15:07:52.573Z,2.77
2022-09-28T15:08:54.023Z,2.30
2022-09-28T15:10:02.639Z,2.90
2022-09-28T15:11:04.224Z,2.97
2022-09-28T15:12:20.266Z,2.87
2022-09-28T15:13:26.280Z,2.63
2022-09-28T15:14:33.368Z,2.77
2022-09-28T15:15:40.149Z,2.40
2022-09-28T15:16:47.021Z,2.83
2022-09-28T15:17:58.723Z,2.70
2022-09-28T15:19:32.573Z,2.70
2022-09-28T15:20:37.984Z,2.83
2022-09-28T15:21:42.484Z,2.70
2022-09-28T15:22:48.785Z,2.77
2022-09-28T15:23:50.856Z,3.10
2022-09-28T15:25:02.838Z,3.27
2022-09-28T15:26:08.369Z,2.97
2022-09-28T15:27:18.969Z,2.87
2022-09-28T15:28:22.896Z,3.47
2022-09-28T15:29:25.800Z,3.13
2022-09-28T15:30:27.237Z,3.40
2022-09-28T15:31:34.942Z,3.80
2022-09-28T15:32:36.437Z,3.53
2022-09-28T15:33:59.636Z,3.33
2022-09-28T15:35:20.606Z,3.57
2022-09-28T15:36:28.591Z,3.60
2022-09-28T15:37:40.417Z,3.70
2022-09-28T15:38:42.914Z,3.43
2022-09-28T15:39:48.130Z,3.30
2022-09-28T15:40:50.229Z,3.73
2022-09-28T15:41:52.642Z,3.73
2022-09-28T15:42:59.077Z,3.73
2022-09-28T15:44:16.287Z,3.43
2022-09-28T15:45:32.017Z,3.93
2022-09-28T15:46:37.561Z,3.90
2022-09-28T15:47:40.173Z,3.77
2022-09-28T15:48:52.151Z,3.50
2022-09-28T15:50:04.482Z,3.70
2022-09-28T15:51:12.051Z,3.60
2022-09-28T15:52:28.337Z,3.83
2022-09-28T15:53:31.255Z,3.73
2022-09-28T15:54:41.629Z,3.17
2022-09-28T15:55:45.150Z,3.30
2022-09-28T15:56:54.874Z,4.20
2022-09-28T15:58:18.249Z,3.20
2022-09-28T15:59:30.028Z,3.53
2022-09-28T16:00:31.892Z,3.13
2022-09-28T16:01:39.837Z,2.90
2022-09-28T16:03:20.225Z,3.30
2022-09-28T16:04:33.768Z,3.10